createdAt,value
2023-01-08T00:00:36.653Z,3.60
2023-01-08T00:03:22.624Z,3.70
2023-01-08T00:06:12.509Z,3.70
2023-01-08T00:08:57.686Z,5.20
2023-01-08T00:11:44.460Z,3.60
2023-01-08T00:14:30.573Z,3.50
2023-01-08T00:17:16.237Z,4.40
2023-01-08T00:20:01.815Z,3.40
2023-01-08T00:22:51.828Z,3.50
2023-01-08T00:25:37.575Z,3.90
2023-01-08T00:28:23.120Z,3.20
2023-01-08T00:31:10.745Z,3.20
2023-01-08T00:33:56.441Z,3.60
2023-01-08T00:36:41.801Z,3.30
2023-01-08T00:39:27.313Z,3.30
2023-01-08T00:42:12.842Z,3.40
2023-01-08T00:44:58.346Z,3.40
2023-01-08T00:47:43.800Z,3.50
2023-01-08T00:50:29.496Z,4.70
2023-01-08T00:53:15.157Z,4.90
2023-01-08T00:56:02.665Z,3.50
2023-01-08T00:58:48.167Z,3.50
2023-01-08T01:01:34.002Z,3.40
2023-01-08T01:04:19.987Z,3.50
2023-01-08T01:07:05.284Z,3.70
2023-01-08T01:09:50.714Z,3.30
2023-01-08T01:12:38.827Z,3.20
2023-01-08T01:15:24.637Z,3.30
2023-01-08T01:18:11.045Z,3.30
2023-01-08T01:20:56.346Z,3.30
2023-01-08T01:23:42.010Z,3.30
2023-01-08T01:26:28.332Z,4.70
2023-01-08T01:29:13.956Z,3.50
2023-01-08T01:31:59.376Z,3.60
2023-01-08T01:34:44.950Z,3.60
2023-01-08T01:37:30.368Z,3.80
2023-01-08T01:40:16.075Z,3.70
2023-01-08T01:43:01.580Z,3.60
2023-01-08T01:45:47.445Z,3.60
2023-01-08T01:48:32.595Z,3.70
2023-01-08T01:51:19.752Z,3.80
2023-01-08T01:54:09.425Z,4.30
2023-01-08T01:56:55.640Z,5.70
2023-01-08T01:59:42.778Z,5.40
2023-01-08T02:02:28.258Z,4.80
2023-01-08T02:05:13.867Z,4.00
2023-01-08T02:08:09.872Z,5.50
2023-01-08T02:11:06.720Z,4.40
2023-01-08T02:14:12.303Z,4.20
2023-01-08T02:17:03.495Z,5.30
2023-01-08T02:19:53.415Z,4.80
2023-01-08T02:23:22.043Z,4.40
2023-01-08T02:26:23.460Z,4.30
2023-01-08T02:29:16.654Z,4.30
2023-01-08T02:32:02.263Z,4.30
2023-01-08T02:34:47.582Z,4.40
2023-01-08T02:37:33.620Z,4.40
2023-01-08T02:40:24.689Z,6.40
2023-01-08T02:43:16.005Z,4.60
2023-01-08T02:46:02.509Z,5.80
2023-01-08T02:48:51.452Z,4.70
2023-01-08T02:51:51.833Z,4.70
2023-01-08T02:54:39.758Z,4.70
2023-01-08T02:57:26.138Z,4.70
2023-01-08T03:00:12.242Z,4.60
2023-01-08T03:03:19.991Z,4.60
2023-01-08T03:06:09.224Z,4.40
2023-01-08T03:08:55.083Z,4.40
2023-01-08T03:12:05.977Z,4.30
2023-01-08T03:14:58.810Z,4.40
2023-01-08T03:17:48.433Z,5.60
2023-01-08T03:20:37.158Z,4.60
2023-01-08T03:23:24.267Z,4.70
2023-01-08T03:26:10.873Z,4.70
2023-01-08T03:28:57.570Z,4.80
2023-01-08T03:31:46.039Z,4.80
2023-01-08T03:34:32.539Z,4.60
2023-01-08T03:37:23.263Z,5.20
2023-01-08T03:40:18.301Z,4.70
2023-01-08T03:43:03.880Z,4.70
2023-01-08T03:45:56.290Z,4.30
2023-01-08T03:48:43.004Z,5.20
2023-01-08T03:51:28.714Z,3.90
2023-01-08T03:54:21.217Z,4.20
2023-01-08T03:57:06.532Z,4.20
2023-01-08T03:59:52.071Z,4.30
2023-01-08T04:02:37.662Z,4.30
2023-01-08T04:05:23.233Z,4.10
2023-01-08T04:08:08.859Z,4.10
2023-01-08T04:10:54.242Z,4.10
2023-01-08T04:13:39.760Z,4.10
2023-01-08T04:16:25.230Z,4.20
2023-01-08T04:19:13.695Z,4.10
2023-01-08T04:21:59.415Z,4.10
2023-01-08T04:24:44.947Z,4.90
2023-01-08T04:27:30.537Z,4.20
2023-01-08T04:30:16.233Z,4.50
2023-01-08T04:33:01.759Z,4.60
2023-01-08T04:35:47.311Z,4.50
2023-01-08T04:38:32.930Z,4.40
2023-01-08T04:41:18.580Z,4.40
2023-01-08T04:44:04.535Z,4.30
2023-01-08T04:46:49.749Z,4.50
2023-01-08T04:49:35.421Z,4.70
2023-01-08T04:52:20.962Z,4.60
2023-01-08T04:55:06.750Z,4.60
2023-01-08T04:57:51.996Z,4.50
2023-01-08T05:00:39.568Z,4.50
2023-01-08T05:03:25.103Z,4.60
2023-01-08T05:06:10.913Z,4.50
2023-01-08T05:08:56.964Z,4.50
2023-01-08T05:11:43.300Z,4.60
2023-01-08T05:14:28.523Z,4.40
2023-01-08T05:17:14.255Z,4.40
2023-01-08T05:19:59.815Z,4.40
2023-01-08T05:22:45.250Z,6.00
2023-01-08T05:25:30.831Z,4.30
2023-01-08T05:28:16.300Z,5.70
2023-01-08T05:31:01.788Z,4.30
2023-01-08T05:33:47.947Z,4.20
2023-01-08T05:36:33.390Z,4.10
2023-01-08T05:39:19.190Z,6.10
2023-01-08T05:42:05.140Z,5.50
2023-01-08T05:44:50.517Z,4.00
2023-01-08T05:47:36.688Z,4.10
2023-01-08T05:50:22.010Z,4.20
2023-01-08T05:53:08.959Z,4.40
2023-01-08T05:55:59.802Z,4.50
2023-01-08T05:58:45.318Z,4.60
2023-01-08T06:01:30.907Z,4.70
2023-01-08T06:04:16.490Z,4.40
2023-01-08T06:07:02.023Z,5.40
2023-01-08T06:09:47.535Z,4.60
2023-01-08T06:12:33.207Z,4.50
2023-01-08T06:15:18.869Z,4.80
2023-01-08T06:18:05.162Z,4.50
2023-01-08T06:20:50.296Z,4.60
2023-01-08T06:23:35.684Z,4.70
2023-01-08T06:26:21.272Z,4.70
2023-01-08T06:29:06.827Z,4.80
2023-01-08T06:31:52.458Z,4.80
2023-01-08T06:34:37.957Z,7.00
2023-01-08T06:37:23.259Z,4.60
2023-01-08T06:40:09.454Z,6.10
2023-01-08T06:42:54.739Z,4.50
2023-01-08T06:45:40.366Z,4.50
2023-01-08T06:48:26.874Z,4.40
2023-01-08T06:51:12.493Z,4.40
2023-01-08T06:53:57.940Z,4.40
2023-01-08T06:56:53.227Z,4.50
2023-01-08T06:59:38.891Z,4.60
2023-01-08T07:02:25.704Z,4.80
2023-01-08T07:05:11.094Z,4.90
2023-01-08T07:07:56.745Z,6.60
2023-01-08T07:10:43.355Z,5.00
2023-01-08T07:13:29.560Z,4.60
2023-01-08T07:16:16.138Z,5.20
2023-01-08T07:19:02.029Z,5.20
2023-01-08T07:21:47.164Z,6.70
2023-01-08T07:24:32.842Z,5.30
2023-01-08T07:27:19.018Z,6.30
2023-01-08T07:30:04.821Z,5.20
2023-01-08T07:32:50.549Z,5.30
2023-01-08T07:35:35.926Z,5.20
2023-01-08T07:38:21.472Z,5.00
2023-01-08T07:41:06.743Z,5.10
2023-01-08T07:43:52.553Z,5.10
2023-01-08T07:46:38.019Z,5.00
2023-01-08T07:49:23.446Z,4.80
2023-01-08T07:52:09.072Z,4.90
2023-01-08T07:54:54.495Z,4.50
2023-01-08T07:57:40.008Z,4.60
2023-01-08T08:00:26.292Z,4.50
2023-01-08T08:03:11.814Z,4.50
2023-01-08T08:06:00.114Z,6.90
2023-01-08T08:08:45.767Z,6.30
2023-01-08T08:11:31.495Z,4.70
2023-01-08T08:14:17.024Z,4.60
2023-01-08T08:17:02.571Z,4.60
2023-01-08T08:19:48.305Z,4.60
2023-01-08T08:22:33.881Z,5.10
2023-01-08T08:25:19.468Z,4.80
2023-01-08T08:28:05.707Z,4.60
2023-01-08T08:30:52.612Z,4.70
2023-01-08T08:33:38.075Z,4.70
2023-01-08T08:36:31.173Z,4.70
2023-01-08T08:39:16.593Z,4.60
2023-01-08T08:42:01.844Z,4.60
2023-01-08T08:44:47.491Z,4.80
2023-01-08T08:47:33.043Z,6.00
2023-01-08T08:50:19.536Z,5.00
2023-01-08T08:53:06.251Z,5.10
2023-01-08T08:55:51.501Z,5.10
2023-01-08T08:58:37.166Z,5.30
2023-01-08T09:01:22.516Z,5.30
2023-01-08T09:04:08.085Z,5.40
2023-01-08T09:06:53.404Z,5.60
2023-01-08T09:09:38.866Z,5.60
2023-01-08T09:12:24.436Z,6.90
2023-01-08T09:15:10.348Z,5.80
2023-01-08T09:17:57.655Z,6.00
2023-01-08T09:20:44.219Z,6.10
2023-01-08T09:23:29.807Z,6.60
2023-01-08T09:26:15.638Z,5.90
2023-01-08T09:29:01.256Z,5.80
2023-01-08T09:31:46.858Z,5.80
2023-01-08T09:34:32.676Z,5.70
2023-01-08T09:37:18.137Z,5.80
2023-01-08T09:40:03.588Z,5.90
2023-01-08T09:42:54.807Z,6.00
2023-01-08T09:45:41.944Z,6.10
2023-01-08T09:48:31.485Z,6.20
2023-01-08T09:51:18.754Z,8.90
2023-01-08T09:54:07.395Z,6.30
2023-01-08T09:56:53.783Z,6.30
2023-01-08T09:59:39.355Z,6.50
2023-01-08T10:02:26.525Z,6.30
2023-01-08T10:05:17.581Z,7.10
2023-01-08T10:08:04.810Z,6.60
2023-01-08T10:10:50.217Z,6.70
2023-01-08T10:13:39.631Z,6.60
2023-01-08T10:16:30.620Z,6.60
2023-01-08T10:19:15.986Z,6.50
2023-01-08T10:22:01.616Z,8.20
2023-01-08T10:24:47.310Z,6.40
2023-01-08T10:27:45.508Z,6.40
2023-01-08T10:30:30.992Z,6.80
2023-01-08T10:33:26.865Z,7.00
2023-01-08T10:36:17.261Z,6.90
2023-01-08T10:39:05.522Z,7.00
2023-01-08T10:41:53.883Z,8.40
2023-01-08T10:44:39.371Z,7.10
2023-01-08T10:47:27.488Z,6.80
2023-01-08T10:50:24.998Z,6.70
2023-01-08T10:53:29.127Z,6.90
2023-01-08T10:56:23.231Z,6.90
2023-01-08T10:59:19.365Z,7.00
2023-01-08T11:02:22.558Z,7.00
2023-01-08T11:05:11.552Z,7.20
2023-01-08T11:07:59.267Z,7.30
2023-01-08T11:10:54.314Z,7.50
2023-01-08T11:13:39.928Z,7.40
2023-01-08T11:16:37.336Z,7.80
2023-01-08T11:19:26.614Z,7.60
2023-01-08T11:22:23.601Z,7.40
2023-01-08T11:25:14.448Z,7.50
2023-01-08T11:28:02.232Z,7.80
2023-01-08T11:30:54.852Z,8.50
2023-01-08T11:33:44.395Z,10.20
2023-01-08T11:36:44.458Z,9.70
2023-01-08T11:39:30.393Z,8.80
2023-01-08T11:42:38.692Z,9.10
2023-01-08T11:45:45.155Z,9.10
2023-01-08T11:49:04.436Z,9.00
2023-01-08T11:51:58.806Z,9.00
2023-01-08T11:54:47.233Z,9.00
2023-01-08T11:58:00.617Z,8.90
2023-01-08T12:01:18.554Z,8.80
2023-01-08T12:04:42.681Z,8.90
2023-01-08T12:07:42.908Z,8.80
2023-01-08T12:10:31.479Z,8.60
2023-01-08T12:13:42.000Z,8.50
2023-01-08T12:16:39.676Z,8.50
2023-01-08T12:19:28.019Z,8.40
2023-01-08T12:22:31.269Z,8.40
2023-01-08T12:25:22.602Z,8.30
2023-01-08T12:28:42.141Z,8.70
2023-01-08T12:31:44.385Z,8.40
2023-01-08T12:34:43.101Z,8.50
2023-01-08T12:37:44.149Z,8.90
2023-01-08T12:40:33.945Z,8.30
2023-01-08T12:43:39.433Z,8.20
2023-01-08T12:46:28.196Z,8.10
2023-01-08T12:49:23.694Z,8.00
2023-01-08T12:52:22.234Z,8.00
2023-01-08T12:55:21.377Z,8.10
2023-01-08T12:58:46.369Z,8.20
2023-01-08T13:02:02.769Z,8.20
2023-01-08T13:04:49.031Z,8.20
2023-01-08T13:07:44.280Z,8.50
2023-01-08T13:10:32.607Z,10.00
2023-01-08T13:13:32.326Z,8.10
2023-01-08T13:16:24.446Z,8.10
2023-01-08T13:19:28.750Z,9.60
2023-01-08T13:22:32.219Z,8.40
2023-01-08T13:25:17.425Z,8.50
2023-01-08T13:28:25.044Z,8.50
2023-01-08T13:31:28.133Z,8.50
2023-01-08T13:34:42.321Z,8.30
2023-01-08T13:37:28.199Z,8.20
2023-01-08T13:40:51.900Z,8.20
2023-01-08T13:43:42.152Z,8.20
2023-01-08T13:46:28.375Z,8.70
2023-01-08T13:49:42.684Z,8.40
2023-01-08T13:52:41.725Z,8.50
2023-01-08T13:55:37.520Z,8.50
2023-01-08T13:58:30.833Z,8.30
2023-01-08T14:01:16.919Z,9.70
2023-01-08T14:04:02.708Z,8.30
2023-01-08T14:06:48.431Z,8.10
2023-01-08T14:09:34.703Z,8.00
2023-01-08T14:12:23.061Z,9.90
2023-01-08T14:15:17.355Z,8.10
2023-01-08T14:18:03.971Z,8.20
2023-01-08T14:20:51.385Z,8.30
2023-01-08T14:23:41.001Z,8.20
2023-01-08T14:26:36.952Z,8.10
2023-01-08T14:29:25.545Z,8.30
2023-01-08T14:32:22.065Z,9.40
2023-01-08T14:35:09.484Z,8.60
2023-01-08T14:37:55.175Z,8.50
2023-01-08T14:40:45.343Z,8.70
2023-01-08T14:43:35.577Z,8.50
2023-01-08T14:46:29.575Z,8.60
2023-01-08T14:49:24.428Z,8.80
2023-01-08T14:52:12.907Z,11.40
2023-01-08T14:55:03.869Z,11.30
2023-01-08T14:57:53.353Z,8.50
2023-01-08T15:00:38.987Z,8.50
2023-01-08T15:03:34.639Z,8.60
2023-01-08T15:06:28.752Z,8.50
2023-01-08T15:09:28.290Z,10.10
2023-01-08T15:12:25.599Z,9.70
2023-01-08T15:15:24.434Z,7.80
2023-01-08T15:18:12.309Z,8.00
2023-01-08T15:20:58.142Z,7.80
2023-01-08T15:23:54.767Z,8.00
2023-01-08T15:26:42.773Z,7.90
2023-01-08T15:29:33.552Z,7.80
2023-01-08T15:32:23.308Z,8.50
2023-01-08T15:35:17.329Z,7.80
2023-01-08T15:38:03.105Z,7.90
2023-01-08T15:40:48.878Z,7.80
2023-01-08T15:43:34.701Z,8.00
2023-01-08T15:46:20.099Z,7.90
2023-01-08T15:49:05.576Z,9.00
2023-01-08T15:51:52.374Z,8.40
2023-01-08T15:54:38.178Z,7.80
2023-01-08T15:57:23.777Z,8.00
2023-01-08T16:00:12.167Z,8.30
2023-01-08T16:02:59.628Z,7.90
2023-01-08T16:05:45.030Z,9.10
2023-01-08T16:08:30.603Z,7.90
2023-01-08T16:11:20.033Z,8.10
2023-01-08T16:14:05.122Z,7.80
2023-01-08T16:16:50.825Z,7.90
2023-01-08T16:19:36.440Z,7.60
2023-01-08T16:22:23.118Z,7.60
2023-01-08T16:25:09.490Z,7.30
2023-01-08T16:27:54.985Z,7.20
2023-01-08T16:30:41.400Z,7.20
2023-01-08T16:33:27.208Z,7.30
2023-01-08T16:36:12.783Z,7.30
2023-01-08T16:38:58.238Z,7.40
2023-01-08T16:41:44.108Z,7.40
2023-01-08T16:44:36.335Z,7.50
2023-01-08T16:47:21.711Z,7.20
2023-01-08T16:50:08.901Z,9.10
2023-01-08T16:52:54.293Z,7.30
2023-01-08T16:55:41.383Z,7.50
2023-01-08T16:58:26.762Z,7.90
2023-01-08T17:01:13.247Z,7.00
2023-01-08T17:04:00.404Z,7.30
2023-01-08T17:06:47.074Z,8.10
2023-01-08T17:09:32.931Z,8.20
2023-01-08T17:12:22.514Z,7.60
2023-01-08T17:15:08.440Z,7.40
2023-01-08T17:17:53.901Z,7.30
2023-01-08T17:20:39.279Z,7.20
2023-01-08T17:23:27.688Z,7.20
2023-01-08T17:26:17.842Z,8.50
2023-01-08T17:29:03.141Z,6.90
2023-01-08T17:31:48.882Z,7.90
2023-01-08T17:34:34.368Z,7.00
2023-01-08T17:37:19.664Z,7.00
2023-01-08T17:40:06.107Z,7.10
2023-01-08T17:42:51.305Z,7.10
2023-01-08T17:45:39.876Z,7.00
2023-01-08T17:48:25.302Z,7.00
2023-01-08T17:51:10.525Z,8.10
2023-01-08T17:53:56.561Z,7.00
2023-01-08T17:56:42.998Z,8.10
2023-01-08T17:59:28.811Z,7.30
2023-01-08T18:02:16.214Z,8.10
2023-01-08T18:05:02.062Z,7.20
2023-01-08T18:07:47.401Z,7.00
2023-01-08T18:10:33.082Z,6.90
2023-01-08T18:13:18.187Z,7.20
2023-01-08T18:16:06.232Z,7.20
2023-01-08T18:18:52.367Z,7.20
2023-01-08T18:21:37.679Z,7.30
2023-01-08T18:24:23.139Z,8.60
2023-01-08T18:27:09.656Z,7.40
2023-01-08T18:29:54.956Z,6.90
2023-01-08T18:32:40.510Z,6.90
2023-01-08T18:35:25.894Z,7.00
2023-01-08T18:38:15.811Z,7.10
2023-01-08T18:41:01.108Z,7.00
2023-01-08T18:43:46.406Z,8.00
2023-01-08T18:46:32.456Z,7.20
2023-01-08T18:49:17.702Z,7.10
2023-01-08T18:52:03.087Z,7.10
2023-01-08T18:54:48.815Z,7.00
2023-01-08T18:57:34.378Z,7.00
2023-01-08T19:00:20.854Z,7.10
2023-01-08T19:03:09.003Z,7.10
2023-01-08T19:05:54.203Z,8.40
2023-01-08T19:08:40.763Z,7.00
2023-01-08T19:11:26.679Z,7.60
2023-01-08T19:14:13.379Z,6.80
2023-01-08T19:16:58.920Z,8.10
2023-01-08T19:19:44.488Z,7.00
2023-01-08T19:22:32.050Z,7.00
2023-01-08T19:25:17.570Z,8.30
2023-01-08T19:28:02.981Z,7.60
2023-01-08T19:30:59.255Z,7.00
2023-01-08T19:33:46.470Z,6.90
2023-01-08T19:36:31.956Z,6.80
2023-01-08T19:39:17.092Z,6.90
2023-01-08T19:42:21.237Z,6.80
2023-01-08T19:45:08.088Z,6.60
2023-01-08T19:47:54.928Z,6.80
2023-01-08T19:50:40.365Z,6.70
2023-01-08T19:53:25.838Z,8.20
2023-01-08T19:56:13.283Z,6.70
2023-01-08T19:58:58.943Z,6.70
2023-01-08T20:01:44.468Z,6.70
2023-01-08T20:04:30.931Z,6.80
2023-01-08T20:07:16.429Z,7.90
2023-01-08T20:10:02.319Z,8.00
2023-01-08T20:12:47.613Z,6.90
2023-01-08T20:15:33.268Z,7.90
2023-01-08T20:18:18.400Z,7.10
2023-01-08T20:21:15.743Z,8.10
2023-01-08T20:24:09.223Z,6.90
2023-01-08T20:26:55.238Z,7.00
2023-01-08T20:29:41.651Z,7.00
2023-01-08T20:32:26.864Z,6.80
2023-01-08T20:35:12.411Z,7.00
2023-01-08T20:37:57.807Z,8.50
2023-01-08T20:40:43.381Z,6.90
2023-01-08T20:43:29.215Z,7.00
2023-01-08T20:46:14.890Z,8.00
2023-01-08T20:49:05.257Z,7.10
2023-01-08T20:51:58.473Z,7.10
2023-01-08T20:54:44.964Z,6.90
2023-01-08T20:57:30.663Z,8.00
2023-01-08T21:00:17.067Z,7.10
2023-01-08T21:03:02.623Z,7.00
2023-01-08T21:05:48.160Z,7.00
2023-01-08T21:08:34.076Z,7.10
2023-01-08T21:11:20.487Z,7.10
2023-01-08T21:14:08.086Z,7.30
2023-01-08T21:16:53.317Z,7.20
2023-01-08T21:19:38.878Z,7.10
2023-01-08T21:22:24.360Z,7.10
2023-01-08T21:25:10.262Z,7.30
2023-01-08T21:27:55.681Z,7.10
2023-01-08T21:30:41.295Z,7.20
2023-01-08T21:33:26.964Z,7.60
2023-01-08T21:36:14.963Z,7.10
2023-01-08T21:39:01.385Z,8.10
2023-01-08T21:42:12.918Z,6.90
2023-01-08T21:45:17.124Z,7.10
2023-01-08T21:48:02.673Z,6.90
2023-01-08T21:50:47.928Z,6.90
2023-01-08T21:53:36.197Z,6.90
2023-01-08T21:56:22.475Z,7.00
2023-01-08T21:59:07.751Z,6.90
2023-01-08T22:01:53.440Z,6.90
2023-01-08T22:04:39.164Z,7.00
2023-01-08T22:07:25.902Z,6.90
2023-01-08T22:10:11.867Z,8.30
2023-01-08T22:12:57.165Z,6.80
2023-01-08T22:15:43.418Z,6.60
2023-01-08T22:18:28.799Z,9.30
2023-01-08T22:21:14.432Z,6.80
2023-01-08T22:23:59.654Z,6.80
2023-01-08T22:26:45.260Z,6.90
2023-01-08T22:29:30.979Z,7.10
2023-01-08T22:32:16.333Z,7.00
2023-01-08T22:35:01.627Z,7.10
2023-01-08T22:37:47.246Z,7.00
2023-01-08T22:40:32.598Z,5.40
2023-01-08T22:43:18.189Z,7.00
2023-01-08T22:46:04.090Z,7.10
2023-01-08T22:48:49.366Z,7.00
2023-01-08T22:51:35.113Z,7.10
2023-01-08T22:54:20.679Z,7.10
2023-01-08T22:57:06.954Z,7.10
2023-01-08T22:59:52.559Z,7.20
2023-01-08T23:02:38.356Z,7.20
2023-01-08T23:05:23.695Z,7.30
2023-01-08T23:08:09.092Z,7.30
2023-01-08T23:10:57.374Z,7.40
2023-01-08T23:13:43.519Z,7.50
2023-01-08T23:16:29.044Z,7.50
2023-01-08T23:19:14.416Z,7.40
2023-01-08T23:22:00.102Z,7.50
2023-01-08T23:24:45.335Z,7.60
2023-01-08T23:27:31.989Z,7.50
2023-01-08T23:30:17.817Z,7.60
2023-01-08T23:33:03.167Z,7.70
2023-01-08T23:35:48.751Z,7.70
2023-01-08T23:38:34.132Z,7.70
2023-01-08T23:41:23.045Z,7.70
2023-01-08T23:44:13.015Z,8.70
2023-01-08T23:46:58.574Z,7.60
2023-01-08T23:49:44.118Z,7.60
2023-01-08T23:52:30.101Z,7.50
2023-01-08T23:55:15.593Z,7.60
2023-01-08T23:58:01.168Z,7.40
